Time;durP1;ratioP1;P1;durP2;ratioP2;P2;SDS_P1;SDS_P2;PMS_P1;PMS_P2;Temp;Humidity;BMP_temperature;BMP_pressure;BME280_temperature;BME280_humidity;BME280_pressure;Samples;Min_cycle;Max_cycle;Signal;HPM_P1;HPM_P2
2021/12/26 00:00:16;;;;;;;3.17;2.73;;;;;;;;;;5010405;28;20495;-67
2021/12/26 00:02:43;;;;;;;3.97;2.43;;;;;;;;;;5011691;28;20492;-67
2021/12/26 00:05:09;;;;;;;5.10;3.50;;;;;;;;;;5011469;28;20042;-67
2021/12/26 00:07:36;;;;;;;3.00;2.27;;;;;;;;;;5012566;28;20124;-67
2021/12/26 00:10:04;;;;;;;3.57;2.37;;;;;;;;;;5014420;28;20049;-67
2021/12/26 00:12:30;;;;;;;4.20;2.10;;;;;;;;;;5014890;28;20183;-67
2021/12/26 00:14:57;;;;;;;3.20;2.17;;;;;;;;;;5013572;28;20810;-67
2021/12/26 00:17:23;;;;;;;3.93;2.80;;;;;;;;;;5015790;28;20121;-67
2021/12/26 00:19:49;;;;;;;2.77;2.53;;;;;;;;;;5015007;28;20207;-67
2021/12/26 00:22:15;;;;;;;6.53;2.70;;;;;;;;;;5014794;28;20037;-67
2021/12/26 00:24:41;;;;;;;6.87;2.57;;;;;;;;;;5014008;28;20042;-67
2021/12/26 00:27:07;;;;;;;2.77;1.73;;;;;;;;;;5014918;28;20108;-67
2021/12/26 00:29:33;;;;;;;5.03;2.70;;;;;;;;;;5012703;28;20041;-67
2021/12/26 00:31:59;;;;;;;2.93;2.30;;;;;;;;;;5012574;28;20116;-67
2021/12/26 00:34:25;;;;;;;3.07;2.70;;;;;;;;;;5011105;28;20041;-67
2021/12/26 00:36:51;;;;;;;4.30;2.23;;;;;;;;;;5014925;28;20042;-67
2021/12/26 00:39:17;;;;;;;4.27;2.37;;;;;;;;;;5015200;28;20694;-67
2021/12/26 00:41:43;;;;;;;3.53;2.40;;;;;;;;;;5014092;28;20057;-67
2021/12/26 00:44:09;;;;;;;4.27;2.33;;;;;;;;;;5014061;28;20487;-67
2021/12/26 00:46:36;;;;;;;4.83;2.73;;;;;;;;;;5014262;28;20100;-67
2021/12/26 00:49:02;;;;;;;4.03;2.10;;;;;;;;;;5014682;28;20077;-66
2021/12/26 00:51:27;;;;;;;3.20;2.20;;;;;;;;;;5014770;28;20407;-67
2021/12/26 00:53:53;;;;;;;2.23;2.03;;;;;;;;;;5014046;28;20038;-67
2021/12/26 00:56:19;;;;;;;2.47;2.10;;;;;;;;;;5014204;28;20149;-67
2021/12/26 00:58:46;;;;;;;3.20;2.30;;;;;;;;;;5014847;28;20038;-67
2021/12/26 01:01:12;;;;;;;4.33;2.23;;;;;;;;;;5013964;28;20041;-67
2021/12/26 01:03:38;;;;;;;4.07;2.53;;;;;;;;;;5014149;28;20042;-67
2021/12/26 01:06:04;;;;;;;3.87;2.33;;;;;;;;;;5013686;28;20080;-67
2021/12/26 01:08:36;;;;;;;2.97;2.40;;;;;;;;;;5013950;28;20047;-67
2021/12/26 01:11:14;;;;;;;2.57;2.20;;;;;;;;;;5013952;28;20042;-67
2021/12/26 01:13:43;;;;;;;3.20;2.43;;;;;;;;;;5014335;28;20038;-67
2021/12/26 01:16:11;;;;;;;3.50;2.33;;;;;;;;;;5013706;28;20117;-67
2021/12/26 01:18:39;;;;;;;2.63;2.10;;;;;;;;;;5013767;28;20111;-67
2021/12/26 01:21:17;;;;;;;9.03;2.33;;;;;;;;;;5013957;28;20034;-67
2021/12/26 01:23:48;;;;;;;5.10;2.37;;;;;;;;;;5013556;28;20049;-67
2021/12/26 01:26:14;;;;;;;3.20;2.40;;;;;;;;;;5013561;28;20092;-67
2021/12/26 01:28:40;;;;;;;3.40;2.50;;;;;;;;;;5010015;28;20117;-67
2021/12/26 01:31:07;;;;;;;3.23;2.33;;;;;;;;;;5008821;28;20026;-66
2021/12/26 01:33:33;;;;;;;3.57;2.43;;;;;;;;;;5006252;28;20069;-67
2021/12/26 01:35:59;;;;;;;3.07;2.10;;;;;;;;;;5013260;28;20042;-67
2021/12/26 01:38:25;;;;;;;3.43;2.47;;;;;;;;;;5012662;28;20650;-67
2021/12/26 01:40:53;;;;;;;2.67;2.40;;;;;;;;;;5014689;28;20415;-66
2021/12/26 01:43:22;;;;;;;4.70;2.90;;;;;;;;;;5011306;28;20060;-67
2021/12/26 01:45:48;;;;;;;4.10;2.40;;;;;;;;;;5012005;28;20487;-67
2021/12/26 01:48:15;;;;;;;4.13;2.50;;;;;;;;;;5012887;28;20491;-67
2021/12/26 01:50:41;;;;;;;4.67;2.30;;;;;;;;;;5012716;28;20120;-67
2021/12/26 01:53:08;;;;;;;3.57;2.70;;;;;;;;;;5013115;28;20436;-67
2021/12/26 01:55:43;;;;;;;3.43;2.50;;;;;;;;;;5013218;28;20046;-67
2021/12/26 01:58:11;;;;;;;4.93;2.20;;;;;;;;;;5013714;28;20113;-67
2021/12/26 02:00:38;;;;;;;5.07;2.53;;;;;;;;;;5012801;28;20049;-67
2021/12/26 02:03:05;;;;;;;3.43;2.43;;;;;;;;;;5012944;28;20541;-67
2021/12/26 02:05:31;;;;;;;4.77;2.53;;;;;;;;;;5012825;28;20538;-67
2021/12/26 02:07:57;;;;;;;3.37;2.27;;;;;;;;;;5013082;28;20042;-66
2021/12/26 02:10:23;;;;;;;4.57;2.70;;;;;;;;;;5012534;28;20536;-67
2021/12/26 02:12:49;;;;;;;3.00;2.57;;;;;;;;;;5012779;28;20069;-66
2021/12/26 02:15:15;;;;;;;3.40;2.40;;;;;;;;;;5012477;28;20107;-66
2021/12/26 02:17:41;;;;;;;6.20;2.83;;;;;;;;;;5003319;28;20393;-67
2021/12/26 02:20:29;;;;;;;4.63;2.90;;;;;;;;;;5006976;28;20053;-67
2021/12/26 02:23:02;;;;;;;3.03;2.60;;;;;;;;;;5009930;28;20042;-67
2021/12/26 02:27:31;;;;;;;4.47;2.30;;;;;;;;;;5012556;28;20041;-66
2021/12/26 02:28:17;;;;;;;4.43;2.70;;;;;;;;;;5012182;28;20049;-67
2021/12/26 02:30:43;;;;;;;5.93;2.60;;;;;;;;;;5014690;28;20519;-66
2021/12/26 02:33:11;;;;;;;3.77;2.70;;;;;;;;;;5020150;28;20103;-67
2021/12/26 02:35:38;;;;;;;4.30;2.60;;;;;;;;;;5018365;28;20565;-67
2021/12/26 02:38:05;;;;;;;6.33;2.77;;;;;;;;;;5007191;28;20436;-67
2021/12/26 02:40:31;;;;;;;3.80;3.23;;;;;;;;;;5007764;28;20128;-67
2021/12/26 02:42:57;;;;;;;4.07;3.23;;;;;;;;;;5012351;28;20537;-67
2021/12/26 02:45:23;;;;;;;3.07;2.20;;;;;;;;;;5011985;28;20045;-67
2021/12/26 02:47:50;;;;;;;4.40;2.60;;;;;;;;;;5012235;28;20034;-67
2021/12/26 02:50:24;;;;;;;4.37;2.60;;;;;;;;;;5012180;28;20496;-67
2021/12/26 02:52:50;;;;;;;5.27;2.50;;;;;;;;;;5012470;28;20061;-67
2021/12/26 02:55:17;;;;;;;3.33;2.40;;;;;;;;;;5011483;28;20033;-67
2021/12/26 02:57:46;;;;;;;2.77;2.57;;;;;;;;;;5012421;28;20451;-67
2021/12/26 03:00:14;;;;;;;3.23;2.53;;;;;;;;;;5009628;28;20124;-67
2021/12/26 03:02:41;;;;;;;4.13;2.83;;;;;;;;;;5011299;28;20041;-66
2021/12/26 03:05:07;;;;;;;5.67;2.53;;;;;;;;;;5011107;28;20046;-67
2021/12/26 03:07:33;;;;;;;4.43;2.90;;;;;;;;;;5011856;28;20046;-66
2021/12/26 03:10:00;;;;;;;3.83;2.90;;;;;;;;;;5010727;28;20046;-67
2021/12/26 03:12:27;;;;;;;4.33;3.07;;;;;;;;;;5011789;28;20134;-66
2021/12/26 03:14:53;;;;;;;4.80;3.10;;;;;;;;;;5011695;28;20034;-67
2021/12/26 03:17:19;;;;;;;3.57;2.90;;;;;;;;;;5012047;28;20407;-66
2021/12/26 03:19:45;;;;;;;5.60;3.03;;;;;;;;;;5011842;28;20038;-67
2021/12/26 03:22:11;;;;;;;4.27;2.97;;;;;;;;;;5011521;28;20052;-66
2021/12/26 03:24:38;;;;;;;7.17;3.20;;;;;;;;;;5011458;28;20041;-67
2021/12/26 03:27:05;;;;;;;5.67;3.17;;;;;;;;;;5010840;28;20053;-67
2021/12/26 03:29:32;;;;;;;5.20;3.43;;;;;;;;;;5011758;28;20133;-67
2021/12/26 03:31:58;;;;;;;5.67;4.13;;;;;;;;;;5011320;28;20037;-66
2021/12/26 03:34:24;;;;;;;5.93;3.73;;;;;;;;;;5011710;28;20518;-67
2021/12/26 03:36:52;;;;;;;5.37;3.20;;;;;;;;;;5011098;28;20052;-67
2021/12/26 03:39:19;;;;;;;4.53;2.87;;;;;;;;;;5012133;28;20077;-67
2021/12/26 03:41:45;;;;;;;5.00;2.80;;;;;;;;;;5012977;28;20033;-67
2021/12/26 03:44:12;;;;;;;4.30;3.10;;;;;;;;;;5015377;28;20491;-66
2021/12/26 03:46:38;;;;;;;4.90;2.73;;;;;;;;;;5015824;28;20045;-67
2021/12/26 03:49:05;;;;;;;5.00;2.53;;;;;;;;;;5015473;28;20042;-67
2021/12/26 03:51:33;;;;;;;6.37;3.13;;;;;;;;;;5015385;28;20046;-67
2021/12/26 03:53:59;;;;;;;9.57;5.17;;;;;;;;;;5014877;28;20125;-67
2021/12/26 03:56:25;;;;;;;4.13;3.17;;;;;;;;;;5015266;28;20117;-67
2021/12/26 03:58:51;;;;;;;5.87;3.33;;;;;;;;;;5015153;28;20091;-67
2021/12/26 04:01:17;;;;;;;3.73;3.00;;;;;;;;;;5015277;28;20501;-67
2021/12/26 04:03:43;;;;;;;4.10;3.13;;;;;;;;;;5015910;28;20033;-67
2021/12/26 04:06:09;;;;;;;6.13;3.30;;;;;;;;;;5014820;28;20491;-67
2021/12/26 04:08:35;;;;;;;3.87;3.27;;;;;;;;;;5015386;28;20033;-66
2021/12/26 04:11:01;;;;;;;6.27;3.40;;;;;;;;;;5015280;28;20049;-66
2021/12/26 04:13:27;;;;;;;7.73;3.40;;;;;;;;;;5014641;28;20077;-67
2021/12/26 04:15:53;;;;;;;5.70;3.23;;;;;;;;;;5014972;28;20034;-67
2021/12/26 04:18:19;;;;;;;4.33;3.70;;;;;;;;;;5015207;28;20145;-67
2021/12/26 04:20:45;;;;;;;4.67;3.50;;;;;;;;;;5014404;28;20034;-66
2021/12/26 04:23:14;;;;;;;6.67;3.70;;;;;;;;;;5015497;28;20092;-66
2021/12/26 04:25:40;;;;;;;4.33;3.27;;;;;;;;;;5014544;28;20044;-67
2021/12/26 04:28:06;;;;;;;5.50;3.27;;;;;;;;;;5015128;28;20045;-66
2021/12/26 04:30:33;;;;;;;5.10;3.03;;;;;;;;;;5014858;28;20078;-66
2021/12/26 04:32:59;;;;;;;4.83;3.80;;;;;;;;;;5076108;22;20032;-70
2021/12/26 04:35:25;;;;;;;5.07;3.43;;;;;;;;;;5038706;28;20037;-70
2021/12/26 04:37:51;;;;;;;4.57;3.47;;;;;;;;;;5073316;28;20081;-70
2021/12/26 04:40:17;;;;;;;4.97;3.50;;;;;;;;;;5074114;28;20032;-70
2021/12/26 04:42:45;;;;;;;6.27;3.67;;;;;;;;;;5055215;28;20148;-69
2021/12/26 04:45:11;;;;;;;5.97;3.57;;;;;;;;;;5054309;28;20044;-70
2021/12/26 04:47:38;;;;;;;5.47;3.37;;;;;;;;;;5034021;28;20085;-70
2021/12/26 04:50:05;;;;;;;6.17;3.27;;;;;;;;;;5035635;28;20099;-70
2021/12/26 04:52:31;;;;;;;4.77;3.10;;;;;;;;;;5034496;28;20049;-70
2021/12/26 04:55:00;;;;;;;4.30;3.20;;;;;;;;;;5051242;28;20059;-70
2021/12/26 04:57:27;;;;;;;5.43;4.20;;;;;;;;;;5041022;28;20466;-70
2021/12/26 04:59:53;;;;;;;3.57;3.07;;;;;;;;;;5048100;28;20383;-70
2021/12/26 05:02:19;;;;;;;3.93;3.53;;;;;;;;;;5044034;28;20041;-69
2021/12/26 05:04:45;;;;;;;6.23;3.83;;;;;;;;;;5047260;28;20045;-69
2021/12/26 05:07:11;;;;;;;6.00;3.93;;;;;;;;;;5049752;28;20116;-70
2021/12/26 05:09:37;;;;;;;6.13;3.50;;;;;;;;;;5034193;28;20129;-69
2021/12/26 05:12:03;;;;;;;6.10;3.47;;;;;;;;;;5045351;28;20398;-70
2021/12/26 05:14:29;;;;;;;5.10;3.40;;;;;;;;;;5039962;28;20044;-70
2021/12/26 05:16:55;;;;;;;4.60;3.17;;;;;;;;;;5038378;28;20115;-70
2021/12/26 05:19:21;;;;;;;4.63;3.80;;;;;;;;;;5039967;28;20046;-70
2021/12/26 05:21:47;;;;;;;5.80;3.70;;;;;;;;;;5039205;28;20103;-69
2021/12/26 05:24:13;;;;;;;4.33;3.43;;;;;;;;;;5019815;28;20042;-70
2021/12/26 05:26:39;;;;;;;7.03;3.73;;;;;;;;;;5029583;28;20041;-70
2021/12/26 05:29:04;;;;;;;7.47;3.70;;;;;;;;;;5051968;28;20048;-70
2021/12/26 05:31:30;;;;;;;5.73;3.40;;;;;;;;;;5048347;28;20033;-70
2021/12/26 05:33:58;;;;;;;7.17;3.93;;;;;;;;;;5047827;28;20473;-70
2021/12/26 05:36:25;;;;;;;4.93;3.63;;;;;;;;;;5051243;28;20051;-70
2021/12/26 05:38:51;;;;;;;5.63;3.73;;;;;;;;;;5053749;28;20498;-70
2021/12/26 05:41:17;;;;;;;3.93;3.30;;;;;;;;;;5029671;28;20044;-69
2021/12/26 05:43:43;;;;;;;5.00;3.60;;;;;;;;;;5044737;28;20037;-70
2021/12/26 05:46:09;;;;;;;5.80;3.70;;;;;;;;;;5033010;28;20044;-69
2021/12/26 05:48:35;;;;;;;6.23;3.10;;;;;;;;;;5046242;28;20124;-70
2021/12/26 05:51:01;;;;;;;4.37;3.40;;;;;;;;;;5048907;28;20037;-70
2021/12/26 05:53:27;;;;;;;5.63;3.43;;;;;;;;;;5053761;28;20091;-69
2021/12/26 05:55:53;;;;;;;5.10;4.00;;;;;;;;;;5053027;28;20036;-69
2021/12/26 05:58:19;;;;;;;5.07;3.40;;;;;;;;;;5051525;28;20045;-70
2021/12/26 06:00:45;;;;;;;4.70;3.63;;;;;;;;;;5045126;28;20167;-69
2021/12/26 06:03:11;;;;;;;5.47;3.90;;;;;;;;;;5051133;28;20036;-69
2021/12/26 06:05:37;;;;;;;5.20;3.70;;;;;;;;;;5042056;28;20490;-70
2021/12/26 06:08:03;;;;;;;5.10;3.40;;;;;;;;;;5045543;28;20049;-69
2021/12/26 06:10:29;;;;;;;4.57;3.47;;;;;;;;;;5040313;28;20042;-69
2021/12/26 06:12:55;;;;;;;3.97;3.07;;;;;;;;;;5041444;28;20121;-69
2021/12/26 06:15:21;;;;;;;4.77;3.47;;;;;;;;;;5048797;28;20060;-69
2021/12/26 06:17:47;;;;;;;5.77;3.97;;;;;;;;;;5033068;28;20044;-69
2021/12/26 06:20:16;;;;;;;5.53;3.77;;;;;;;;;;5033969;28;20116;-69
2021/12/26 06:22:43;;;;;;;6.17;3.97;;;;;;;;;;5036356;28;20033;-69
2021/12/26 06:25:10;;;;;;;4.27;3.33;;;;;;;;;;5051394;28;20119;-69
2021/12/26 06:27:36;;;;;;;4.53;2.90;;;;;;;;;;5035551;28;20144;-69
2021/12/26 06:30:04;;;;;;;6.10;3.93;;;;;;;;;;5041361;28;20084;-69
2021/12/26 06:32:30;;;;;;;6.27;3.40;;;;;;;;;;5052178;28;20107;-69
2021/12/26 06:34:56;;;;;;;7.30;3.60;;;;;;;;;;5049508;28;20388;-70
2021/12/26 06:37:22;;;;;;;5.93;3.33;;;;;;;;;;5050417;28;20044;-69
2021/12/26 06:39:48;;;;;;;4.03;2.90;;;;;;;;;;5034988;28;20045;-69
2021/12/26 06:42:14;;;;;;;6.53;3.80;;;;;;;;;;5033287;28;20045;-69
2021/12/26 06:44:40;;;;;;;4.83;3.70;;;;;;;;;;5052337;28;20119;-69
2021/12/26 06:47:06;;;;;;;6.60;3.50;;;;;;;;;;5030780;28;20529;-69
2021/12/26 06:49:32;;;;;;;5.87;3.70;;;;;;;;;;5052260;28;20045;-70
2021/12/26 06:51:58;;;;;;;5.80;4.00;;;;;;;;;;5037975;28;20106;-69
2021/12/26 06:54:24;;;;;;;4.13;3.47;;;;;;;;;;5045625;28;20052;-69
2021/12/26 06:56:51;;;;;;;3.67;3.13;;;;;;;;;;5028835;28;20041;-69
2021/12/26 06:59:17;;;;;;;5.50;3.53;;;;;;;;;;5052011;28;20375;-70
2021/12/26 07:01:43;;;;;;;4.57;3.37;;;;;;;;;;5037054;28;20446;-70
2021/12/26 07:04:09;;;;;;;7.03;3.87;;;;;;;;;;5040568;28;20105;-70
2021/12/26 07:06:35;;;;;;;5.57;3.67;;;;;;;;;;5037404;28;20037;-70
2021/12/26 07:09:01;;;;;;;7.53;4.17;;;;;;;;;;5046486;28;20044;-70
2021/12/26 07:11:27;;;;;;;6.23;3.97;;;;;;;;;;5044005;28;20064;-70
2021/12/26 07:13:53;;;;;;;6.10;3.67;;;;;;;;;;5052062;28;20056;-69
2021/12/26 07:16:19;;;;;;;5.87;4.10;;;;;;;;;;5045388;28;20072;-70
2021/12/26 07:18:45;;;;;;;4.67;3.50;;;;;;;;;;5051796;28;20470;-69
2021/12/26 07:21:11;;;;;;;4.67;3.17;;;;;;;;;;5028498;28;20076;-70
2021/12/26 07:23:37;;;;;;;5.97;3.90;;;;;;;;;;5048926;28;20073;-70
2021/12/26 07:26:03;;;;;;;6.17;3.80;;;;;;;;;;5050770;28;20116;-70
2021/12/26 07:28:29;;;;;;;4.83;4.00;;;;;;;;;;5051672;28;20446;-70
2021/12/26 07:30:55;;;;;;;6.33;3.70;;;;;;;;;;5045404;28;20167;-70
2021/12/26 07:33:21;;;;;;;8.50;4.30;;;;;;;;;;5043135;28;20304;-70
2021/12/26 07:35:47;;;;;;;7.23;4.30;;;;;;;;;;5043952;28;20041;-69
2021/12/26 07:38:13;;;;;;;6.50;4.37;;;;;;;;;;5043729;28;20052;-69
2021/12/26 07:40:39;;;;;;;6.47;4.10;;;;;;;;;;5026263;28;20099;-70
2021/12/26 07:43:05;;;;;;;6.57;3.73;;;;;;;;;;5044941;28;20448;-69
2021/12/26 07:45:31;;;;;;;7.33;3.77;;;;;;;;;;5046389;28;20068;-70
2021/12/26 07:47:57;;;;;;;8.87;4.17;;;;;;;;;;5044258;28;20060;-69
2021/12/26 07:50:23;;;;;;;6.03;4.03;;;;;;;;;;5026901;28;20060;-70
2021/12/26 07:52:52;;;;;;;6.83;4.37;;;;;;;;;;5044610;28;20037;-69
2021/12/26 07:55:18;;;;;;;5.10;4.10;;;;;;;;;;5039413;28;20422;-70
2021/12/26 07:57:48;;;;;;;5.80;4.33;;;;;;;;;;5043742;28;22073;-69
2021/12/26 08:00:14;;;;;;;6.20;4.97;;;;;;;;;;5040885;28;20549;-69
2021/12/26 08:02:40;;;;;;;7.97;5.00;;;;;;;;;;5041647;28;20340;-70
2021/12/26 08:05:06;;;;;;;6.33;4.30;;;;;;;;;;5042522;28;20033;-69
2021/12/26 08:07:33;;;;;;;5.77;4.33;;;;;;;;;;5045040;28;20044;-70
2021/12/26 08:09:59;;;;;;;7.33;4.53;;;;;;;;;;5039448;28;20186;-70
2021/12/26 08:12:25;;;;;;;8.67;4.97;;;;;;;;;;5039115;28;20124;-71
2021/12/26 08:14:51;;;;;;;8.10;5.27;;;;;;;;;;5042262;28;20452;-69
2021/12/26 08:17:17;;;;;;;7.77;5.20;;;;;;;;;;5025007;28;20103;-69
2021/12/26 08:19:43;;;;;;;12.17;5.10;;;;;;;;;;5041071;28;20033;-69
2021/12/26 08:22:09;;;;;;;8.00;4.67;;;;;;;;;;5041032;28;20128;-69
2021/12/26 08:24:35;;;;;;;6.67;4.93;;;;;;;;;;5039795;28;20152;-68
2021/12/26 08:27:01;;;;;;;6.73;4.70;;;;;;;;;;5042642;28;20568;-69
2021/12/26 08:29:28;;;;;;;8.23;5.33;;;;;;;;;;5043458;28;20072;-68
2021/12/26 08:31:56;;;;;;;8.63;5.17;;;;;;;;;;5050449;28;20049;-68
2021/12/26 08:34:23;;;;;;;7.90;5.27;;;;;;;;;;5041309;28;20502;-69
2021/12/26 08:36:55;;;;;;;7.70;4.67;;;;;;;;;;5047340;28;20123;-68
2021/12/26 08:39:21;;;;;;;7.73;4.40;;;;;;;;;;5035384;28;20438;-68
2021/12/26 08:41:47;;;;;;;6.43;5.13;;;;;;;;;;5026490;28;20080;-68
2021/12/26 08:44:16;;;;;;;7.30;4.63;;;;;;;;;;5044599;28;20596;-69
2021/12/26 08:46:42;;;;;;;7.80;4.60;;;;;;;;;;5044200;28;20048;-69
2021/12/26 08:49:08;;;;;;;7.20;5.23;;;;;;;;;;5021514;28;20064;-68
2021/12/26 08:51:34;;;;;;;7.33;4.90;;;;;;;;;;5050977;28;20120;-68
2021/12/26 08:54:02;;;;;;;9.40;5.23;;;;;;;;;;5051486;28;20037;-68
2021/12/26 08:56:28;;;;;;;8.13;4.83;;;;;;;;;;5053852;28;20124;-69
2021/12/26 08:58:54;;;;;;;9.43;5.03;;;;;;;;;;5051848;28;20107;-69
2021/12/26 09:01:20;;;;;;;6.53;4.77;;;;;;;;;;5047012;28;20037;-69
2021/12/26 09:03:46;;;;;;;7.47;4.43;;;;;;;;;;5017309;28;20121;-68
2021/12/26 09:06:12;;;;;;;7.13;4.80;;;;;;;;;;5043289;28;20112;-69
2021/12/26 09:08:39;;;;;;;7.07;5.10;;;;;;;;;;5046943;28;20044;-68
2021/12/26 09:11:05;;;;;;;7.03;4.97;;;;;;;;;;5045468;28;20037;-70
2021/12/26 09:13:32;;;;;;;6.33;5.03;;;;;;;;;;5047203;28;20120;-69
2021/12/26 09:15:58;;;;;;;8.43;5.10;;;;;;;;;;5045825;28;20045;-69
2021/12/26 09:18:24;;;;;;;8.57;5.33;;;;;;;;;;5032147;28;20049;-69
2021/12/26 09:20:50;;;;;;;7.37;5.47;;;;;;;;;;5049244;28;20044;-70
2021/12/26 09:23:16;;;;;;;8.00;5.23;;;;;;;;;;5043652;28;20048;-70
2021/12/26 09:25:42;;;;;;;7.70;4.90;;;;;;;;;;5053566;28;20107;-70
2021/12/26 09:28:09;;;;;;;7.10;5.23;;;;;;;;;;5053502;28;20044;-70
2021/12/26 09:30:35;;;;;;;7.37;5.23;;;;;;;;;;5051958;28;20087;-70
2021/12/26 09:33:01;;;;;;;6.67;5.10;;;;;;;;;;5049178;28;20112;-69
2021/12/26 09:35:27;;;;;;;9.70;5.53;;;;;;;;;;5053360;28;20545;-69
2021/12/26 09:37:53;;;;;;;8.60;5.30;;;;;;;;;;5053497;28;20041;-69
2021/12/26 09:40:20;;;;;;;6.93;5.53;;;;;;;;;;5046501;28;20151;-68
2021/12/26 09:42:46;;;;;;;6.30;5.07;;;;;;;;;;5034766;28;20045;-68
2021/12/26 09:45:12;;;;;;;8.03;5.13;;;;;;;;;;5052459;28;20048;-67
2021/12/26 09:47:39;;;;;;;9.80;5.20;;;;;;;;;;5052453;28;20481;-67
2021/12/26 09:50:06;;;;;;;7.63;5.07;;;;;;;;;;5050111;28;20041;-67
2021/12/26 09:52:32;;;;;;;7.13;4.83;;;;;;;;;;5053525;28;20041;-67
2021/12/26 09:54:58;;;;;;;9.07;5.33;;;;;;;;;;5045415;28;20041;-67
2021/12/26 09:57:24;;;;;;;10.93;5.67;;;;;;;;;;5048288;28;20033;-67
2021/12/26 09:59:51;;;;;;;8.93;5.77;;;;;;;;;;5049687;28;20502;-67
2021/12/26 10:02:18;;;;;;;9.37;5.50;;;;;;;;;;5052910;28;20494;-68
2021/12/26 10:04:45;;;;;;;7.87;5.47;;;;;;;;;;5040674;28;20049;-68
2021/12/26 10:07:16;;;;;;;9.97;5.33;;;;;;;;;;5045257;28;20136;-68
2021/12/26 10:09:43;;;;;;;8.80;5.47;;;;;;;;;;5047647;28;20037;-67
2021/12/26 10:12:13;;;;;;;7.20;4.97;;;;;;;;;;5024502;28;20304;-66
2021/12/26 10:14:39;;;;;;;7.33;5.47;;;;;;;;;;5041834;28;20414;-67
2021/12/26 10:17:07;;;;;;;8.60;5.50;;;;;;;;;;5048348;28;20037;-66
2021/12/26 10:19:36;;;;;;;10.73;5.13;;;;;;;;;;5050442;28;20048;-67
2021/12/26 10:22:04;;;;;;;9.07;5.63;;;;;;;;;;5048037;28;20037;-66
2021/12/26 10:24:34;;;;;;;8.40;5.47;;;;;;;;;;5051123;28;20437;-66
2021/12/26 10:27:04;;;;;;;8.37;5.60;;;;;;;;;;5033308;28;20040;-66
2021/12/26 10:29:33;;;;;;;9.23;5.60;;;;;;;;;;5025514;28;20045;-66
2021/12/26 10:32:04;;;;;;;9.30;5.47;;;;;;;;;;5065403;22;20413;-66
2021/12/26 10:34:30;;;;;;;9.70;4.60;;;;;;;;;;5070874;28;20028;-65
2021/12/26 10:36:57;;;;;;;9.37;5.83;;;;;;;;;;5069493;28;20043;-65
2021/12/26 10:39:28;;;;;;;9.47;5.70;;;;;;;;;;5071407;28;20090;-65
2021/12/26 10:41:56;;;;;;;8.77;5.97;;;;;;;;;;5067832;22;20041;-65
2021/12/26 10:44:23;;;;;;;10.87;5.87;;;;;;;;;;5050838;28;20064;-65
2021/12/26 10:46:50;;;;;;;11.10;6.67;;;;;;;;;;5045056;28;20060;-64
2021/12/26 10:49:31;;;;;;;8.70;5.93;;;;;;;;;;5049345;28;20045;-64
2021/12/26 10:51:57;;;;;;;7.30;5.38;;;;;;;;;;5042350;28;20044;-65
2021/12/26 10:54:26;;;;;;;7.07;5.43;;;;;;;;;;5032025;28;20120;-65
2021/12/26 10:57:02;;;;;;;11.87;5.20;;;;;;;;;;5028310;28;20045;-65
2021/12/26 10:59:29;;;;;;;7.43;5.30;;;;;;;;;;5031671;28;20123;-65
2021/12/26 11:01:56;;;;;;;8.67;5.20;;;;;;;;;;5031433;28;20558;-65
2021/12/26 11:04:23;;;;;;;9.50;5.37;;;;;;;;;;5031423;28;20041;-65
2021/12/26 11:06:59;;;;;;;8.87;5.43;;;;;;;;;;5030251;28;20099;-66
2021/12/26 11:09:25;;;;;;;7.97;5.13;;;;;;;;;;5030290;28;20050;-65
2021/12/26 11:11:58;;;;;;;8.70;5.63;;;;;;;;;;5029889;28;20140;-66
2021/12/26 11:14:24;;;;;;;11.77;5.97;;;;;;;;;;5030702;28;20067;-66
2021/12/26 11:16:50;;;;;;;9.23;5.50;;;;;;;;;;5031285;28;20038;-66
2021/12/26 11:19:16;;;;;;;10.10;5.83;;;;;;;;;;5030445;28;20033;-66
2021/12/26 11:21:43;;;;;;;7.47;5.80;;;;;;;;;;5025937;28;20060;-66
2021/12/26 11:24:08;;;;;;;6.63;4.70;;;;;;;;;;5031580;28;20558;-66
2021/12/26 11:26:35;;;;;;;9.00;5.67;;;;;;;;;;5029774;28;20116;-66
2021/12/26 11:29:01;;;;;;;7.13;5.43;;;;;;;;;;5030139;28;20047;-66
2021/12/26 11:31:29;;;;;;;8.97;5.60;;;;;;;;;;5031083;28;20124;-66
2021/12/26 11:33:59;;;;;;;9.13;5.97;;;;;;;;;;5030740;28;20566;-65
2021/12/26 11:36:27;;;;;;;10.60;6.10;;;;;;;;;;5030516;28;20076;-66
2021/12/26 11:38:55;;;;;;;8.50;5.43;;;;;;;;;;5030329;28;20589;-66
2021/12/26 11:41:37;;;;;;;11.27;5.37;;;;;;;;;;5027854;28;20049;-67
2021/12/26 11:44:21;;;;;;;8.60;5.37;;;;;;;;;;5030531;28;20068;-66
2021/12/26 11:47:03;;;;;;;8.63;6.00;;;;;;;;;;5026462;28;20034;-66
2021/12/26 11:49:41;;;;;;;9.93;5.83;;;;;;;;;;5023572;28;20038;-66
2021/12/26 11:52:16;;;;;;;6.93;5.43;;;;;;;;;;5027840;28;20049;-67
2021/12/26 11:55:01;;;;;;;9.03;5.57;;;;;;;;;;5036451;28;20048;-66
2021/12/26 11:57:40;;;;;;;11.13;6.20;;;;;;;;;;5028511;28;20380;-66
2021/12/26 12:00:10;;;;;;;9.80;5.90;;;;;;;;;;5023498;28;20060;-66
2021/12/26 12:02:37;;;;;;;8.63;5.43;;;;;;;;;;5026806;28;20086;-66
2021/12/26 12:05:20;;;;;;;9.63;6.40;;;;;;;;;;5031951;28;20539;-66
2021/12/26 12:07:58;;;;;;;8.83;5.33;;;;;;;;;;5030739;28;20045;-66
2021/12/26 12:10:30;;;;;;;9.23;6.03;;;;;;;;;;5026196;28;20046;-66
2021/12/26 12:12:56;;;;;;;9.53;5.90;;;;;;;;;;5034458;28;20394;-66
2021/12/26 12:15:41;;;;;;;7.03;5.10;;;;;;;;;;5034385;28;20037;-67
2021/12/26 12:18:09;;;;;;;10.23;6.40;;;;;;;;;;5029884;28;20066;-67
2021/12/26 12:20:35;;;;;;;9.10;6.17;;;;;;;;;;5031391;28;20041;-67
2021/12/26 12:23:07;;;;;;;9.47;5.90;;;;;;;;;;5033374;28;20399;-66
2021/12/26 12:25:36;;;;;;;8.47;5.60;;;;;;;;;;5033654;28;20041;-66
2021/12/26 12:28:05;;;;;;;8.77;5.63;;;;;;;;;;5031427;28;20045;-67
2021/12/26 12:30:31;;;;;;;10.50;6.23;;;;;;;;;;5032372;28;20088;-67
2021/12/26 12:33:16;;;;;;;8.85;5.95;;;;;;;;;;5032481;28;20030;-67
2021/12/26 12:35:47;;;;;;;8.33;6.00;;;;;;;;;;5033715;28;20037;-67
2021/12/26 12:38:22;;;;;;;9.52;5.80;;;;;;;;;;5032455;28;20040;-67
2021/12/26 12:40:48;;;;;;;9.77;6.07;;;;;;;;;;5031271;28;20063;-67
2021/12/26 12:43:19;;;;;;;10.82;6.72;;;;;;;;;;5030411;28;20037;-66
2021/12/26 12:48:25;;;;;;;9.13;5.85;;;;;;;;;;5032691;28;20049;-66
2021/12/26 12:50:51;;;;;;;9.05;5.50;;;;;;;;;;5032437;28;20038;-66
2021/12/26 12:53:36;;;;;;;9.25;5.15;;;;;;;;;;5056362;22;20082;-66
2021/12/26 12:56:02;;;;;;;8.15;6.07;;;;;;;;;;5040959;28;20068;-66
2021/12/26 12:58:32;;;;;;;9.80;5.72;;;;;;;;;;5051392;28;20071;-66
2021/12/26 13:00:58;;;;;;;11.05;6.30;;;;;;;;;;5046795;28;20037;-67
2021/12/26 13:03:24;;;;;;;9.30;5.90;;;;;;;;;;5052898;28;20072;-67
2021/12/26 13:05:51;;;;;;;8.67;6.17;;;;;;;;;;5051856;28;20119;-66
2021/12/26 13:08:19;;;;;;;9.00;6.40;;;;;;;;;;5053410;28;20439;-66
2021/12/26 13:10:50;;;;;;;10.20;6.63;;;;;;;;;;5053621;28;20033;-66
2021/12/26 13:13:17;;;;;;;8.43;5.85;;;;;;;;;;5053886;28;20048;-66
2021/12/26 13:16:03;;;;;;;9.52;5.95;;;;;;;;;;5052970;28;20060;-67
2021/12/26 13:18:30;;;;;;;10.98;6.35;;;;;;;;;;5052180;28;20065;-66
2021/12/26 13:20:58;;;;;;;9.23;6.00;;;;;;;;;;5053436;28;20044;-66
2021/12/26 13:23:25;;;;;;;12.07;5.90;;;;;;;;;;5053232;28;20076;-66
2021/12/26 13:25:52;;;;;;;10.10;6.20;;;;;;;;;;5053243;28;20037;-67
2021/12/26 13:28:18;;;;;;;8.23;6.30;;;;;;;;;;5052917;28;20039;-66
2021/12/26 13:30:45;;;;;;;10.10;6.38;;;;;;;;;;5053427;28;20049;-67
2021/12/26 13:33:15;;;;;;;11.45;6.60;;;;;;;;;;5053151;28;20091;-66
2021/12/26 13:35:42;;;;;;;7.82;5.43;;;;;;;;;;5053426;28;20127;-66
2021/12/26 13:38:08;;;;;;;8.73;6.05;;;;;;;;;;5053879;28;20044;-66
2021/12/26 13:40:38;;;;;;;9.65;6.40;;;;;;;;;;5052684;28;20041;-66
2021/12/26 13:43:04;;;;;;;11.10;6.40;;;;;;;;;;5053438;28;20041;-66
2021/12/26 13:45:31;;;;;;;10.73;6.50;;;;;;;;;;5052801;28;20048;-66
2021/12/26 13:47:57;;;;;;;9.48;6.15;;;;;;;;;;5052765;28;20120;-66
2021/12/26 13:50:24;;;;;;;9.40;5.97;;;;;;;;;;5052644;28;20187;-66
2021/12/26 13:53:04;;;;;;;11.38;6.15;;;;;;;;;;5052090;28;20038;-66
2021/12/26 13:55:38;;;;;;;11.02;6.78;;;;;;;;;;5052504;28;20045;-66
2021/12/26 13:58:05;;;;;;;11.50;6.68;;;;;;;;;;5046888;28;20450;-67
2021/12/26 14:00:31;;;;;;;8.75;6.70;;;;;;;;;;5051971;28;20045;-66
2021/12/26 14:03:01;;;;;;;8.18;5.90;;;;;;;;;;5051325;28;20112;-66
2021/12/26 14:05:27;;;;;;;10.77;6.80;;;;;;;;;;5042880;28;20068;-66
2021/12/26 14:07:59;;;;;;;10.97;6.83;;;;;;;;;;5049908;28;20159;-67
2021/12/26 14:10:26;;;;;;;10.07;6.70;;;;;;;;;;5059055;28;20049;-66
2021/12/26 14:12:59;;;;;;;12.18;7.28;;;;;;;;;;5047930;28;20037;-66
2021/12/26 14:15:34;;;;;;;9.90;6.47;;;;;;;;;;5049228;28;20045;-66
2021/12/26 14:18:03;;;;;;;10.95;7.57;;;;;;;;;;5046081;28;20395;-66
2021/12/26 14:20:42;;;;;;;11.33;6.93;;;;;;;;;;5052119;28;20099;-66
2021/12/26 14:23:19;;;;;;;11.03;7.20;;;;;;;;;;5052829;28;20033;-66
2021/12/26 14:25:45;;;;;;;11.40;7.50;;;;;;;;;;5049578;28;20041;-66
2021/12/26 14:28:19;;;;;;;11.38;7.35;;;;;;;;;;5051295;28;20072;-66
2021/12/26 14:30:45;;;;;;;88.78;33.30;;;;;;;;;;5051773;28;20090;-66
2021/12/26 14:33:12;;;;;;;11.68;7.25;;;;;;;;;;5047801;28;20144;-66
2021/12/26 14:35:39;;;;;;;11.83;8.23;;;;;;;;;;5044129;28;20403;-66
2021/12/26 14:38:08;;;;;;;12.57;7.43;;;;;;;;;;5048616;28;20078;-66
2021/12/26 14:40:35;;;;;;;9.23;6.47;;;;;;;;;;5051875;28;20049;-66
2021/12/26 14:43:07;;;;;;;10.32;7.22;;;;;;;;;;5052253;28;20047;-66
2021/12/26 14:45:33;;;;;;;10.20;7.70;;;;;;;;;;5051457;28;20049;-66